Time;durP1;ratioP1;P1;durP2;ratioP2;P2;SDS_P1;SDS_P2;PMS_P1;PMS_P2;Temp;Humidity;BMP_temperature;BMP_pressure;BME280_temperature;BME280_humidity;BME280_pressure;Samples;Min_cycle;Max_cycle;Signal;HPM_P1;HPM_P2
2023/07/06 00:01:14;;;;;;;3.33;1.75;;;;;12.50;94319.00;;;;7397103;19;20668;-78
2023/07/06 00:03:43;;;;;;;4.55;1.83;;;;;12.30;94319.00;;;;7401302;19;20129;-76
2023/07/06 00:06:18;;;;;;;3.55;1.88;;;;;12.30;94326.00;;;;7396596;19;20141;-79
2023/07/06 00:08:45;;;;;;;4.80;2.28;;;;;12.20;94330.00;;;;7399272;19;20216;-78
2023/07/06 00:11:20;;;;;;;1.95;1.67;;;;;12.30;94322.00;;;;7399268;19;20144;-78
2023/07/06 00:13:57;;;;;;;5.03;1.73;;;;;12.20;94317.00;;;;7400198;19;20144;-78
2023/07/06 00:16:26;;;;;;;2.85;1.80;;;;;12.30;94322.00;;;;7398720;19;20171;-78
2023/07/06 00:19:02;;;;;;;2.38;1.80;;;;;12.30;94323.00;;;;7399988;19;20163;-77
2023/07/06 00:21:32;;;;;;;3.35;2.08;;;;;12.20;94330.00;;;;7399078;19;20133;-75
2023/07/06 00:24:07;;;;;;;4.33;1.80;;;;;12.00;94325.00;;;;7397705;19;20174;-76
2023/07/06 00:26:37;;;;;;;2.40;1.80;;;;;11.80;94331.00;;;;7396492;19;20208;-79
2023/07/06 00:29:11;;;;;;;3.40;1.80;;;;;11.70;94329.00;;;;7400905;19;20212;-78
2023/07/06 00:31:51;;;;;;;2.70;1.70;;;;;11.60;94320.00;;;;7398331;19;20135;-78
2023/07/06 00:34:25;;;;;;;1.87;1.47;;;;;11.70;94333.00;;;;7398422;19;20173;-77
2023/07/06 00:36:55;;;;;;;2.75;1.73;;;;;11.80;94330.00;;;;7400749;19;20143;-80
2023/07/06 00:39:29;;;;;;;3.10;1.85;;;;;11.70;94332.00;;;;7399329;19;20140;-77
2023/07/06 00:41:58;;;;;;;3.88;2.10;;;;;11.50;94335.00;;;;7396417;19;20156;-78
2023/07/06 00:44:58;;;;;;;3.38;2.00;;;;;11.40;94322.00;;;;7400199;19;20490;-77
2023/07/06 00:47:59;;;;;;;1.77;1.60;;;;;11.40;94328.00;;;;7398472;19;20205;-77
2023/07/06 00:50:33;;;;;;;2.88;1.80;;;;;11.50;94330.00;;;;7398564;19;20153;-78
2023/07/06 00:53:08;;;;;;;5.55;1.90;;;;;11.60;94327.00;;;;7398359;19;20218;-76
2023/07/06 00:55:42;;;;;;;3.83;1.80;;;;;11.50;94326.00;;;;7399410;19;20637;-78
2023/07/06 00:58:32;;;;;;;2.17;1.70;;;;;11.70;94326.00;;;;7398412;19;20156;-78
2023/07/06 01:01:19;;;;;;;2.35;1.67;;;;;11.70;94324.00;;;;7397515;19;20477;-77
2023/07/06 01:03:56;;;;;;;2.58;1.83;;;;;11.60;94324.00;;;;7396636;19;20141;-79
2023/07/06 01:06:34;;;;;;;4.82;2.03;;;;;11.70;94324.00;;;;7396212;19;20584;-78
2023/07/06 01:09:10;;;;;;;2.47;1.83;;;;;11.80;94316.00;;;;7396947;19;20144;-77
2023/07/06 01:11:44;;;;;;;4.47;1.80;;;;;11.80;94331.00;;;;7398328;19;20125;-77
2023/07/06 01:14:15;;;;;;;3.80;2.10;;;;;11.80;94325.00;;;;7398926;19;20140;-77
2023/07/06 01:17:07;;;;;;;2.47;1.70;;;;;11.90;94312.00;;;;7397061;19;20168;-77
2023/07/06 01:20:01;;;;;;;2.53;1.77;;;;;11.80;94313.00;;;;7396636;19;20159;-77
2023/07/06 01:23:08;;;;;;;4.05;1.75;;;;;12.10;94311.00;;;;7397634;19;20145;-77
2023/07/06 01:26:00;;;;;;;2.20;1.60;;;;;12.10;94322.00;;;;7395495;19;20620;-75
2023/07/06 01:29:03;;;;;;;3.53;1.83;;;;;12.20;94318.00;;;;7397365;19;20149;-79
2023/07/06 01:32:05;;;;;;;4.90;1.90;;;;;12.20;94317.00;;;;7396845;19;20208;-77
2023/07/06 01:34:57;;;;;;;2.38;1.80;;;;;12.20;94321.00;;;;7395473;19;20177;-79
2023/07/06 01:37:42;;;;;;;5.40;1.77;;;;;12.20;94318.00;;;;7396848;19;20156;-78
2023/07/06 01:40:17;;;;;;;3.53;2.00;;;;;12.30;94310.00;;;;7396051;19;20170;-77
2023/07/06 01:42:51;;;;;;;3.08;1.83;;;;;12.50;94296.00;;;;7396721;19;20146;-80
2023/07/06 01:45:29;;;;;;;4.95;1.77;;;;;12.40;94297.00;;;;7395837;19;20152;-78
2023/07/06 01:48:10;;;;;;;311.55;75.95;;;;;12.40;94309.00;;;;7397887;19;20470;-78
2023/07/06 01:50:56;;;;;;;515.67;25.95;;;;;12.30;94304.00;;;;7396773;19;20140;-77
2023/07/06 01:53:52;;;;;;;1102.20;60.83;;;;;12.30;94297.00;;;;7398251;19;20139;-77
2023/07/06 01:56:58;;;;;;;1999.90;999.90;;;;;12.10;94307.00;;;;7395965;19;20513;-76
2023/07/06 01:59:46;;;;;;;3.47;1.85;;;;;12.10;94304.00;;;;7395778;19;20193;-77
2023/07/06 02:02:23;;;;;;;3.47;1.63;;;;;12.10;94301.00;;;;7396118;19;20162;-82
2023/07/06 02:05:02;;;;;;;93.45;9.18;;;;;12.00;94297.00;;;;7396314;19;20153;-77
2023/07/06 02:07:32;;;;;;;79.63;5.20;;;;;12.00;94300.00;;;;7395570;19;20516;-80
2023/07/06 02:10:07;;;;;;;3.78;1.80;;;;;12.00;94296.00;;;;7396333;19;20140;-81
2023/07/06 02:12:37;;;;;;;1999.90;999.90;;;;;12.00;94296.00;;;;7396056;19;20155;-79
2023/07/06 02:15:16;;;;;;;1060.97;511.05;;;;;12.00;94297.00;;;;7401646;19;20611;-77
2023/07/06 02:17:46;;;;;;;973.35;66.88;;;;;11.90;94299.00;;;;7402391;19;20149;-78
2023/07/06 02:20:21;;;;;;;3.50;1.98;;;;;11.80;94306.00;;;;7402159;19;20144;-78
2023/07/06 02:22:50;;;;;;;4.60;1.90;;;;;11.70;94295.00;;;;7404572;19;20478;-78
2023/07/06 02:25:18;;;;;;;262.00;31.35;;;;;11.70;94306.00;;;;7401527;19;20665;-79
2023/07/06 02:27:53;;;;;;;2.15;1.80;;;;;11.60;94313.00;;;;7402973;19;20151;-78
2023/07/06 02:30:21;;;;;;;2.25;1.90;;;;;11.60;94303.00;;;;7403958;19;20137;-76
2023/07/06 02:32:56;;;;;;;2.20;1.67;;;;;11.70;94306.00;;;;7402337;19;20609;-77
2023/07/06 02:35:23;;;;;;;3.45;1.80;;;;;11.60;94308.00;;;;7401903;19;20148;-77
2023/07/06 02:37:58;;;;;;;2.45;1.67;;;;;11.60;94305.00;;;;7404405;19;20161;-76
2023/07/06 02:40:32;;;;;;;7.95;1.92;;;;;11.60;94300.00;;;;7402272;19;20133;-76
2023/07/06 02:43:07;;;;;;;2.28;1.80;;;;;11.70;94302.00;;;;7403963;19;20762;-79
2023/07/06 02:45:47;;;;;;;2.33;1.58;;;;;11.80;94292.00;;;;7402487;19;20495;-79
2023/07/06 02:48:15;;;;;;;2.30;1.70;;;;;11.80;94294.00;;;;7402579;19;20137;-77
2023/07/06 02:50:50;;;;;;;5.75;1.60;;;;;11.80;94285.00;;;;7401013;19;20148;-76
2023/07/06 02:53:27;;;;;;;3.05;1.58;;;;;11.80;94283.00;;;;7400947;19;20765;-77
2023/07/06 02:56:03;;;;;;;2.90;1.80;;;;;11.70;94289.00;;;;7403188;19;20132;-77
2023/07/06 02:58:34;;;;;;;1.97;1.67;;;;;11.50;94295.00;;;;7401444;19;20481;-77
2023/07/06 03:01:15;;;;;;;5.68;2.03;;;;;11.30;94297.00;;;;7396744;19;21160;-76
2023/07/06 03:03:53;;;;;;;3.38;1.90;;;;;11.20;94301.00;;;;7400952;19;20144;-76
2023/07/06 03:06:28;;;;;;;5.15;1.73;;;;;11.30;94290.00;;;;7399678;19;20133;-77
2023/07/06 03:08:57;;;;;;;2.88;1.75;;;;;11.40;94291.00;;;;7399608;19;20140;-79
2023/07/06 03:11:33;;;;;;;2.22;1.85;;;;;11.30;94283.00;;;;7400251;19;21005;-76
2023/07/06 03:14:09;;;;;;;2.53;1.75;;;;;11.30;94282.00;;;;7403755;19;20230;-78
2023/07/06 03:16:43;;;;;;;4.53;1.60;;;;;11.30;94288.00;;;;7400091;19;20668;-81
2023/07/06 03:19:13;;;;;;;3.53;1.83;;;;;11.50;94283.00;;;;7399390;19;20141;-79
2023/07/06 03:21:42;;;;;;;4.97;1.80;;;;;11.60;94276.00;;;;7403000;19;20137;-78
2023/07/06 03:24:16;;;;;;;3.00;1.60;;;;;11.50;94286.00;;;;7399674;19;20221;-77
2023/07/06 03:26:45;;;;;;;6.93;2.13;;;;;11.50;94276.00;;;;7397238;19;20596;-78
2023/07/06 03:29:20;;;;;;;4.05;2.28;;;;;11.60;94277.00;;;;7401483;19;20129;-80
2023/07/06 03:31:55;;;;;;;2.58;1.58;;;;;11.60;94276.00;;;;7399859;19;20157;-75
2023/07/06 03:34:30;;;;;;;3.10;1.85;;;;;11.40;94282.00;;;;7399831;19;20200;-79
2023/07/06 03:37:06;;;;;;;3.35;1.48;;;;;11.40;94282.00;;;;7400768;19;20157;-77
2023/07/06 03:39:40;;;;;;;3.83;2.00;;;;;11.30;94289.00;;;;7399714;19;20169;-75
2023/07/06 03:42:09;;;;;;;4.57;2.20;;;;;11.40;94274.00;;;;7400562;19;20152;-79
2023/07/06 03:44:47;;;;;;;5.50;1.88;;;;;11.50;94283.00;;;;7399804;19;20632;-78
2023/07/06 03:47:15;;;;;;;2.60;1.75;;;;;11.60;94281.00;;;;7397782;19;20136;-76
2023/07/06 03:49:51;;;;;;;4.72;1.85;;;;;11.60;94279.00;;;;7399447;19;20136;-79
2023/07/06 03:52:22;;;;;;;3.58;2.20;;;;;11.70;94283.00;;;;7399380;19;20212;-79
2023/07/06 03:54:59;;;;;;;3.53;2.20;;;;;11.60;94275.00;;;;7399900;19;20641;-80
2023/07/06 03:57:30;;;;;;;2.80;1.60;;;;;11.60;94278.00;;;;7399793;19;20654;-81
2023/07/06 04:00:24;;;;;;;8.93;2.00;;;;;11.70;94270.00;;;;7397933;19;20212;-79
2023/07/06 04:03:01;;;;;;;5.13;1.80;;;;;11.80;94266.00;;;;7398158;19;20156;-76
2023/07/06 04:05:38;;;;;;;8.18;1.67;;;;;11.80;94273.00;;;;7400005;19;20133;-78
2023/07/06 04:08:11;;;;;;;3.83;1.75;;;;;11.90;94277.00;;;;7399027;19;20600;-83
2023/07/06 04:10:48;;;;;;;3.20;1.55;;;;;12.00;94285.00;;;;7398407;19;20154;-78
2023/07/06 04:13:16;;;;;;;2.80;1.60;;;;;11.90;94281.00;;;;7398500;19;20152;-78
2023/07/06 04:15:52;;;;;;;9.25;2.53;;;;;11.90;94279.00;;;;7399649;19;20754;-81
2023/07/06 04:18:21;;;;;;;3.65;1.85;;;;;11.80;94282.00;;;;7399086;19;21152;-79
2023/07/06 04:20:58;;;;;;;5.00;1.95;;;;;11.90;94283.00;;;;7400481;19;20132;-77
2023/07/06 04:23:32;;;;;;;2.42;1.58;;;;;12.10;94285.00;;;;7397022;19;20144;-79
2023/07/06 04:26:08;;;;;;;3.03;1.58;;;;;12.10;94295.00;;;;7397417;19;20505;-78
2023/07/06 04:28:42;;;;;;;7.43;1.80;;;;;12.00;94295.00;;;;7397250;19;20800;-77
2023/07/06 04:31:17;;;;;;;4.63;2.00;;;;;12.00;94292.00;;;;7399161;19;20157;-77
2023/07/06 04:33:46;;;;;;;6.43;1.40;;;;;12.10;94300.00;;;;7399024;19;20133;-79
2023/07/06 04:36:21;;;;;;;3.05;1.73;;;;;12.20;94288.00;;;;7399240;19;20621;-78
2023/07/06 04:38:50;;;;;;;9.57;1.90;;;;;12.30;94292.00;;;;7395076;19;20144;-79
2023/07/06 04:41:25;;;;;;;2.55;1.70;;;;;12.50;94286.00;;;;7399252;19;20214;-79
2023/07/06 04:43:54;;;;;;;2.70;1.70;;;;;12.80;94291.00;;;;7399289;19;20624;-78
2023/07/06 04:46:30;;;;;;;3.30;1.48;;;;;13.00;94290.00;;;;7397718;19;20161;-79
2023/07/06 04:49:01;;;;;;;3.47;1.48;;;;;13.30;94290.00;;;;7397554;19;20149;-78
2023/07/06 04:51:37;;;;;;;6.95;1.60;;;;;13.60;94292.00;;;;7397523;19;20226;-78
2023/07/06 04:54:05;;;;;;;3.40;1.70;;;;;13.90;94285.00;;;;7397238;19;20584;-77
2023/07/06 04:56:41;;;;;;;3.05;1.90;;;;;14.10;94287.00;;;;7398645;19;20204;-78
2023/07/06 04:59:09;;;;;;;2.88;1.85;;;;;14.20;94291.00;;;;7394327;19;20153;-79
2023/07/06 05:01:51;;;;;;;2.25;1.75;;;;;14.40;94289.00;;;;7395338;19;20180;-77
2023/07/06 05:04:20;;;;;;;4.00;1.70;;;;;14.50;94287.00;;;;7396451;19;20157;-78
2023/07/06 05:06:57;;;;;;;2.05;1.40;;;;;14.40;94281.00;;;;7395492;19;20623;-76
2023/07/06 05:09:25;;;;;;;2.30;1.70;;;;;14.50;94296.00;;;;7397035;19;20592;-77
2023/07/06 05:12:01;;;;;;;3.78;1.75;;;;;14.60;94288.00;;;;7380630;19;20220;-78
2023/07/06 05:14:29;;;;;;;3.72;1.80;;;;;14.70;94290.00;;;;7381533;19;20188;-78
2023/07/06 05:17:04;;;;;;;2.80;1.48;;;;;14.90;94292.00;;;;7386504;19;20158;-79
2023/07/06 05:19:33;;;;;;;3.15;1.58;;;;;15.10;94295.00;;;;7389401;19;20138;-77
2023/07/06 05:22:09;;;;;;;3.45;1.65;;;;;15.30;94296.00;;;;7387214;19;20155;-79
2023/07/06 05:24:41;;;;;;;3.53;1.70;;;;;15.50;94295.00;;;;7387653;19;20144;-77
2023/07/06 05:27:18;;;;;;;2.80;2.08;;;;;15.70;94297.00;;;;7389005;19;20179;-79
2023/07/06 05:29:48;;;;;;;3.55;1.83;;;;;15.70;94291.00;;;;7389396;19;20133;-77
2023/07/06 05:32:22;;;;;;;3.33;1.85;;;;;15.80;94296.00;;;;7388461;19;20128;-76
2023/07/06 05:34:50;;;;;;;3.55;1.80;;;;;16.00;94297.00;;;;7390052;19;20129;-78
2023/07/06 05:37:29;;;;;;;4.07;1.90;;;;;16.00;94304.00;;;;7385850;19;20130;-76
2023/07/06 05:40:06;;;;;;;3.13;1.80;;;;;16.00;94303.00;;;;7388188;19;20144;-77
2023/07/06 05:42:44;;;;;;;3.85;2.03;;;;;16.10;94297.00;;;;7384398;19;20182;-76
2023/07/06 05:45:11;;;;;;;4.57;1.60;;;;;16.30;94306.00;;;;7385630;19;20149;-77
2023/07/06 05:47:47;;;;;;;5.22;1.60;;;;;16.40;94309.00;;;;7385103;19;20159;-75
2023/07/06 05:50:15;;;;;;;2.90;1.60;;;;;16.70;94307.00;;;;7386345;19;20158;-77
2023/07/06 05:52:52;;;;;;;3.05;1.80;;;;;16.80;94314.00;;;;7386230;19;20248;-77
2023/07/06 05:55:29;;;;;;;4.28;1.70;;;;;16.90;94313.00;;;;7384478;19;20154;-76
2023/07/06 05:58:03;;;;;;;3.42;1.40;;;;;17.20;94310.00;;;;7384251;19;20185;-75
2023/07/06 06:01:00;;;;;;;4.07;1.70;;;;;17.50;94317.00;;;;7385738;19;20243;-77
2023/07/06 06:03:35;;;;;;;2.22;1.33;;;;;17.50;94319.00;;;;7384411;19;20144;-77
2023/07/06 06:06:11;;;;;;;5.53;1.70;;;;;17.50;94319.00;;;;7384482;19;20191;-75
2023/07/06 06:08:45;;;;;;;3.58;1.50;;;;;17.70;94323.00;;;;7384977;19;20670;-76
2023/07/06 06:11:15;;;;;;;5.03;1.45;;;;;17.90;94311.00;;;;7385566;19;20176;-76
2023/07/06 06:13:50;;;;;;;2.85;1.48;;;;;18.00;94323.00;;;;7385071;19;20125;-75
2023/07/06 06:16:19;;;;;;;4.03;1.85;;;;;18.00;94325.00;;;;7385784;19;20548;-77
2023/07/06 06:18:57;;;;;;;4.47;1.35;;;;;18.40;94331.00;;;;7384637;19;20623;-76
2023/07/06 06:21:24;;;;;;;4.22;1.70;;;;;18.80;94324.00;;;;7387423;19;20136;-76
2023/07/06 06:24:08;;;;;;;3.28;1.70;;;;;19.00;94324.00;;;;7383336;19;20608;-78
2023/07/06 06:26:36;;;;;;;2.05;1.45;;;;;19.00;94328.00;;;;7385610;19;21010;-77
2023/07/06 06:29:11;;;;;;;3.97;1.83;;;;;19.00;94332.00;;;;7384609;19;20203;-78
2023/07/06 06:31:46;;;;;;;1.88;1.40;;;;;19.00;94334.00;;;;7384920;19;21026;-77
2023/07/06 06:34:14;;;;;;;8.55;1.65;;;;;18.90;94333.00;;;;7383862;19;20269;-75
2023/07/06 06:36:52;;;;;;;2.40;1.70;;;;;19.60;94270.00;;;;7383885;19;20136;-76
2023/07/06 06:39:20;;;;;;;3.95;1.60;;;;;19.90;94322.00;;;;7385003;19;20187;-74
2023/07/06 06:41:58;;;;;;;4.10;1.65;;;;;19.90;94334.00;;;;7383860;19;20148;-75
2023/07/06 06:44:28;;;;;;;2.53;1.38;;;;;20.10;94330.00;;;;7382949;19;20488;-75
2023/07/06 06:47:04;;;;;;;3.42;1.80;;;;;19.90;94334.00;;;;7383388;19;20264;-76
2023/07/06 06:49:40;;;;;;;3.53;1.88;;;;;19.10;94336.00;;;;7386070;19;20145;-76
2023/07/06 06:52:16;;;;;;;2.13;1.77;;;;;19.00;94328.00;;;;7384767;19;20144;-78
2023/07/06 06:54:51;;;;;;;1.88;1.30;;;;;19.20;94338.00;;;;7381695;19;20645;-76
2023/07/06 06:57:27;;;;;;;1.73;1.38;;;;;19.80;94335.00;;;;7384100;19;20688;-76
2023/07/06 07:00:10;;;;;;;5.22;1.60;;;;;19.80;94336.00;;;;7381747;19;20180;-78
2023/07/06 07:02:52;;;;;;;1.65;1.50;;;;;19.80;94341.00;;;;7387807;19;20191;-74
2023/07/06 07:05:27;;;;;;;3.78;1.80;;;;;19.50;94336.00;;;;7388549;19;20174;-76
2023/07/06 07:08:05;;;;;;;2.13;1.52;;;;;19.60;94341.00;;;;7391212;19;20143;-77
2023/07/06 07:10:35;;;;;;;3.38;1.60;;;;;19.80;94341.00;;;;7390775;19;20121;-76
2023/07/06 07:13:12;;;;;;;2.97;1.40;;;;;19.90;94335.00;;;;7388207;19;20129;-75
2023/07/06 07:15:46;;;;;;;4.18;2.00;;;;;20.10;94330.00;;;;7388106;19;20165;-76
2023/07/06 07:18:16;;;;;;;3.45;1.83;;;;;20.00;94340.00;;;;7390369;19;20166;-77
2023/07/06 07:20:53;;;;;;;4.05;1.73;;;;;20.00;94335.00;;;;7391707;19;20140;-76
2023/07/06 07:23:24;;;;;;;2.38;1.73;;;;;20.40;94347.00;;;;7390237;19;20125;-77
2023/07/06 07:26:03;;;;;;;4.82;2.38;;;;;20.50;94335.00;;;;7389583;19;20128;-78
2023/07/06 07:28:37;;;;;;;5.35;1.92;;;;;20.80;94341.00;;;;7391972;19;20144;-76
2023/07/06 07:31:11;;;;;;;2.20;1.48;;;;;19.40;94334.00;;;;7390810;19;20482;-77
2023/07/06 07:33:50;;;;;;;3.05;1.52;;;;;20.00;94336.00;;;;7389556;19;20739;-78
2023/07/06 07:36:25;;;;;;;4.80;1.65;;;;;20.70;94339.00;;;;7389801;19;20600;-78
2023/07/06 07:38:56;;;;;;;2.85;1.50;;;;;21.10;94332.00;;;;7389892;19;20133;-79
2023/07/06 07:41:31;;;;;;;2.63;1.45;;;;;21.30;94351.00;;;;7389138;19;20125;-76
2023/07/06 07:44:06;;;;;;;4.05;1.75;;;;;21.00;94346.00;;;;7388011;19;20612;-77
2023/07/06 07:46:41;;;;;;;5.55;1.70;;;;;20.60;94335.00;;;;7388619;19;21093;-77
2023/07/06 07:49:09;;;;;;;5.57;1.90;;;;;21.40;94345.00;;;;7389395;19;20170;-79
2023/07/06 07:51:44;;;;;;;2.85;1.60;;;;;21.20;94355.00;;;;7391390;19;20136;-77
2023/07/06 07:54:12;;;;;;;3.60;1.73;;;;;21.40;94329.00;;;;7388427;19;20160;-81
2023/07/06 07:56:54;;;;;;;2.45;1.70;;;;;22.30;94331.00;;;;7388581;19;20163;-78
2023/07/06 07:59:33;;;;;;;2.25;1.70;;;;;22.90;94322.00;;;;7391085;19;20200;-76
2023/07/06 08:02:07;;;;;;;3.78;2.00;;;;;23.80;94318.00;;;;7388510;19;20242;-79
2023/07/06 08:04:44;;;;;;;3.03;1.80;;;;;23.70;94348.00;;;;7388367;19;20152;-78
2023/07/06 08:07:12;;;;;;;2.08;1.58;;;;;22.60;94337.00;;;;7389262;19;20492;-76
2023/07/06 08:09:56;;;;;;;5.97;2.10;;;;;21.30;94337.00;;;;7388831;19;20167;-75
2023/07/06 08:12:32;;;;;;;4.68;1.80;;;;;22.00;94351.00;;;;7389412;19;20133;-77
2023/07/06 08:15:08;;;;;;;3.08;1.90;;;;;21.50;94353.00;;;;7388005;19;20137;-76
2023/07/06 08:17:36;;;;;;;2.70;1.48;;;;;21.10;94360.00;;;;7388620;19;20137;-76
2023/07/06 08:20:14;;;;;;;2.13;1.83;;;;;20.70;94369.00;;;;7390520;19;20501;-76
2023/07/06 08:23:12;;;;;;;3.58;1.75;;;;;20.50;94373.00;;;;7390677;19;20136;-77
2023/07/06 08:25:52;;;;;;;5.40;1.80;;;;;20.30;94373.00;;;;7390529;19;20539;-75
2023/07/06 08:28:31;;;;;;;1.90;1.70;;;;;20.10;94362.00;;;;7388674;19;20140;-75
2023/07/06 08:31:16;;;;;;;2.45;1.80;;;;;19.90;94368.00;;;;7386808;19;20625;-76
2023/07/06 08:33:48;;;;;;;3.47;1.88;;;;;20.40;94362.00;;;;7389254;19;20140;-79
2023/07/06 08:36:25;;;;;;;6.15;2.28;;;;;20.40;94368.00;;;;7389967;19;20604;-78
2023/07/06 08:38:54;;;;;;;4.53;1.90;;;;;20.20;94367.00;;;;7388978;19;20136;-78
2023/07/06 08:41:39;;;;;;;2.75;2.13;;;;;19.90;94373.00;;;;7388481;19;20157;-79
2023/07/06 08:44:12;;;;;;;4.35;1.75;;;;;20.10;94381.00;;;;7388188;19;20163;-76
2023/07/06 08:46:48;;;;;;;5.43;1.92;;;;;19.90;94380.00;;;;7388804;19;20121;-78
2023/07/06 08:49:30;;;;;;;4.68;2.10;;;;;19.90;94378.00;;;;7386943;19;20144;-76
2023/07/06 08:52:11;;;;;;;2.28;1.50;;;;;20.70;94346.00;;;;7386996;19;20498;-78
2023/07/06 08:54:49;;;;;;;5.75;1.63;;;;;20.80;94357.00;;;;7385717;19;20165;-76
2023/07/06 08:57:28;;;;;;;3.47;1.80;;;;;20.30;94383.00;;;;7387521;19;20623;-78
2023/07/06 09:00:25;;;;;;;3.58;2.00;;;;;20.00;94352.00;;;;7385624;19;20148;-77
2023/07/06 09:03:10;;;;;;;2.15;1.80;;;;;20.70;94346.00;;;;7387616;19;20145;-76
2023/07/06 09:05:46;;;;;;;4.40;1.80;;;;;21.10;94347.00;;;;7386817;19;20135;-75
2023/07/06 09:08:23;;;;;;;2.88;1.70;;;;;21.80;94335.00;;;;7386114;19;20136;-76
2023/07/06 09:10:50;;;;;;;3.00;2.03;;;;;22.40;94335.00;;;;7388096;19;20478;-78
2023/07/06 09:13:45;;;;;;;2.72;1.80;;;;;22.80;94330.00;;;;7386025;19;20125;-77
2023/07/06 09:16:19;;;;;;;5.18;2.00;;;;;23.90;94321.00;;;;7386985;19;20133;-75
2023/07/06 09:18:54;;;;;;;2.95;2.00;;;;;24.70;94320.00;;;;7384862;19;20589;-77
2023/07/06 09:21:26;;;;;;;6.72;1.83;;;;;25.10;94318.00;;;;7388502;19;20140;-78
2023/07/06 09:24:01;;;;;;;2.75;1.95;;;;;25.90;94348.00;;;;7383446;19;20152;-78
2023/07/06 09:26:35;;;;;;;3.63;1.95;;;;;25.90;94325.00;;;;7387185;19;20125;-78
2023/07/06 09:29:28;;;;;;;3.05;2.00;;;;;23.70;94369.00;;;;7387687;19;20153;-78
2023/07/06 09:32:22;;;;;;;3.75;1.90;;;;;22.50;94369.00;;;;7385649;19;20188;-79
2023/07/06 09:35:04;;;;;;;4.55;2.35;;;;;21.70;94378.00;;;;7385348;19;20166;-78
2023/07/06 09:37:47;;;;;;;5.13;2.35;;;;;20.10;94379.00;;;;7384611;19;20169;-78
2023/07/06 09:40:29;;;;;;;5.20;2.05;;;;;19.40;94375.00;;;;7388545;19;20133;-77
2023/07/06 09:43:03;;;;;;;5.13;2.15;;;;;19.00;94383.00;;;;7386893;19;20663;-79
2023/07/06 09:45:32;;;;;;;3.67;1.85;;;;;18.80;94387.00;;;;7385964;19;20220;-76
2023/07/06 09:48:26;;;;;;;5.45;1.95;;;;;19.10;94389.00;;;;7385094;19;20173;-77
2023/07/06 09:50:59;;;;;;;4.20;2.28;;;;;20.50;94348.00;;;;7386393;19;20147;-78
2023/07/06 09:53:43;;;;;;;2.92;1.90;;;;;22.00;94343.00;;;;7386393;19;20156;-76
2023/07/06 09:56:12;;;;;;;4.50;2.33;;;;;23.10;94340.00;;;;7386913;19;20169;-77
2023/07/06 09:58:50;;;;;;;4.03;2.00;;;;;23.50;94335.00;;;;7386476;19;20216;-78
2023/07/06 10:01:36;;;;;;;4.10;2.10;;;;;23.10;94345.00;;;;7385423;19;20175;-76
2023/07/06 10:04:29;;;;;;;3.80;2.33;;;;;23.50;94331.00;;;;7380945;19;20188;-78
2023/07/06 10:07:15;;;;;;;3.92;2.13;;;;;25.00;94326.00;;;;7384477;19;20616;-76
2023/07/06 10:09:59;;;;;;;2.55;1.90;;;;;25.90;94357.00;;;;7384294;19;20225;-77
2023/07/06 10:12:38;;;;;;;5.10;2.08;;;;;25.40;94350.00;;;;7386153;19;20212;-77
2023/07/06 10:15:39;;;;;;;2.80;2.15;;;;;24.30;94364.00;;;;7386714;19;20135;-76
2023/07/06 10:18:27;;;;;;;4.30;2.67;;;;;23.10;94377.00;;;;7384872;19;20542;-75
2023/07/06 10:21:13;;;;;;;3.15;2.05;;;;;22.70;94387.00;;;;7386798;19;20265;-77
2023/07/06 10:24:12;;;;;;;6.65;2.38;;;;;21.50;94391.00;;;;7385080;19;20152;-76
2023/07/06 10:26:54;;;;;;;2.13;1.90;;;;;21.20;94394.00;;;;7385189;19;20196;-78
2023/07/06 10:29:41;;;;;;;5.13;2.15;;;;;20.70;94393.00;;;;7380295;19;20620;-77
2023/07/06 10:32:37;;;;;;;6.03;2.50;;;;;20.50;94384.00;;;;7380756;19;20193;-76
2023/07/06 10:35:25;;;;;;;5.50;2.30;;;;;21.10;94388.00;;;;7385160;19;20148;-76
2023/07/06 10:38:19;;;;;;;3.28;2.33;;;;;21.50;94346.00;;;;7387281;19;20179;-77
2023/07/06 10:41:11;;;;;;;3.67;2.35;;;;;23.30;94339.00;;;;7387267;19;20137;-78
2023/07/06 10:43:48;;;;;;;6.13;1.95;;;;;25.10;94338.00;;;;7387193;19;20652;-76
2023/07/06 10:46:30;;;;;;;4.70;2.15;;;;;26.40;94327.00;;;;7387316;19;20143;-78
2023/07/06 10:49:21;;;;;;;3.63;2.08;;;;;27.20;94333.00;;;;7385617;19;20137;-78
2023/07/06 10:51:56;;;;;;;5.57;2.38;;;;;25.90;94366.00;;;;7384245;19;20989;-77
2023/07/06 10:54:32;;;;;;;3.70;2.38;;;;;25.10;94330.00;;;;7384751;19;20674;-78
2023/07/06 10:57:11;;;;;;;3.05;2.30;;;;;25.60;94337.00;;;;7387848;19;20598;-78
2023/07/06 10:59:48;;;;;;;2.83;2.22;;;;;24.30;94375.00;;;;7392186;19;20216;-75
2023/07/06 11:02:40;;;;;;;4.35;2.17;;;;;22.60;94345.00;;;;7384979;19;20549;-79
2023/07/06 11:05:28;;;;;;;4.50;2.03;;;;;24.20;94385.00;;;;7386221;19;20152;-79
2023/07/06 11:08:05;;;;;;;3.50;2.35;;;;;23.00;94374.00;;;;7385682;19;20129;-73
2023/07/06 11:10:49;;;;;;;10.75;2.47;;;;;22.50;94380.00;;;;7383032;19;20137;-78
2023/07/06 11:13:25;;;;;;;3.65;2.20;;;;;23.10;94384.00;;;;7383596;19;20157;-75
2023/07/06 11:15:56;;;;;;;4.07;2.20;;;;;22.90;94384.00;;;;7386974;19;20653;-76
2023/07/06 11:18:45;;;;;;;3.80;2.42;;;;;22.30;94382.00;;;;7391248;19;20155;-78
2023/07/06 11:21:38;;;;;;;4.07;2.40;;;;;22.40;94388.00;;;;7394299;19;20161;-79
2023/07/06 11:24:17;;;;;;;6.32;2.80;;;;;22.40;94387.00;;;;7396822;19;20148;-78
2023/07/06 11:26:56;;;;;;;2.65;2.15;;;;;22.20;94398.00;;;;7392735;19;20181;-77
2023/07/06 11:29:33;;;;;;;7.05;2.08;;;;;22.20;94396.00;;;;7388913;19;20164;-78
2023/07/06 11:32:37;;;;;;;4.10;2.45;;;;;22.60;94393.00;;;;7391888;19;20154;-78
2023/07/06 11:35:31;;;;;;;3.35;2.30;;;;;22.20;94379.00;;;;7393422;19;20187;-77
2023/07/06 11:38:30;;;;;;;3.97;2.40;;;;;23.70;94378.00;;;;7396937;19;20133;-76
2023/07/06 11:41:24;;;;;;;4.70;2.42;;;;;25.30;94349.00;;;;7392931;19;20616;-76
2023/07/06 11:44:09;;;;;;;3.33;2.40;;;;;26.70;94336.00;;;;7388360;19;20210;-75
2023/07/06 11:46:56;;;;;;;3.88;2.33;;;;;26.30;94368.00;;;;7387298;19;20153;-77
2023/07/06 11:49:50;;;;;;;4.25;2.25;;;;;26.70;94339.00;;;;7388677;19;20462;-78
2023/07/06 11:52:31;;;;;;;4.10;2.67;;;;;28.30;94337.00;;;;7389206;19;20162;-76
2023/07/06 11:55:50;;;;;;;3.78;2.70;;;;;29.00;94343.00;;;;7390663;19;20596;-78
2023/07/06 11:58:08;;;;;;;3.83;2.70;;;;;26.50;94378.00;;;;7390122;19;20153;-74
2023/07/06 12:00:55;;;;;;;3.05;2.17;;;;;25.20;94381.00;;;;7390261;19;20510;-80
2023/07/06 12:03:38;;;;;;;7.30;2.70;;;;;24.60;94385.00;;;;7391432;19;20626;-81
2023/07/06 12:06:18;;;;;;;5.13;3.00;;;;;25.70;94371.00;;;;7388813;19;20144;-78
2023/07/06 12:08:45;;;;;;;5.22;2.63;;;;;25.20;94378.00;;;;7390150;19;20156;-79
2023/07/06 12:11:23;;;;;;;2.50;2.30;;;;;24.80;94378.00;;;;7392135;19;20145;-79
2023/07/06 12:13:55;;;;;;;4.90;2.42;;;;;25.70;94371.00;;;;7391376;19;20192;-82
2023/07/06 12:16:40;;;;;;;4.85;2.70;;;;;24.90;94389.00;;;;7391062;19;20650;-78
2023/07/06 12:19:19;;;;;;;6.88;2.50;;;;;24.20;94379.00;;;;7388735;19;20635;-79
2023/07/06 12:21:59;;;;;;;4.68;2.72;;;;;23.50;94382.00;;;;7388537;19;20587;-79
2023/07/06 12:24:37;;;;;;;3.65;2.25;;;;;23.30;94375.00;;;;7390145;19;20156;-78
2023/07/06 12:27:14;;;;;;;7.28;2.97;;;;;23.20;94383.00;;;;7389944;19;20140;-80
2023/07/06 12:30:03;;;;;;;5.40;2.40;;;;;22.70;94385.00;;;;7388647;19;20152;-81
2023/07/06 12:32:31;;;;;;;3.38;2.50;;;;;22.80;94384.00;;;;7387881;19;20648;-83
2023/07/06 12:35:11;;;;;;;4.43;2.33;;;;;22.80;94381.00;;;;7390236;19;20141;-80
2023/07/06 12:37:41;;;;;;;3.58;2.40;;;;;24.00;94324.00;;;;7389270;19;20149;-80
2023/07/06 12:40:23;;;;;;;4.97;2.40;;;;;25.30;94324.00;;;;7391316;19;20136;-79
2023/07/06 12:43:00;;;;;;;4.70;2.60;;;;;26.50;94369.00;;;;7388434;19;20220;-78
2023/07/06 12:45:35;;;;;;;5.63;2.70;;;;;26.70;94352.00;;;;7382818;19;20738;-79
2023/07/06 12:48:24;;;;;;;4.60;2.55;;;;;27.00;94331.00;;;;7382739;19;20983;-80
2023/07/06 12:50:55;;;;;;;5.00;2.70;;;;;28.20;94319.00;;;;7381549;19;20149;-82
2023/07/06 12:53:33;;;;;;;4.95;3.05;;;;;28.90;94319.00;;;;7382325;19;20271;-81
2023/07/06 12:56:16;;;;;;;4.43;2.80;;;;;27.00;94362.00;;;;7384554;19;20154;-79
2023/07/06 12:59:03;;;;;;;6.13;2.65;;;;;26.50;94316.00;;;;7382115;19;20523;-80
2023/07/06 13:01:38;;;;;;;6.32;2.75;;;;;28.50;94318.00;;;;7383293;19;20180;-82
2023/07/06 13:04:20;;;;;;;4.70;2.70;;;;;28.60;94304.00;;;;7384288;19;20473;-80
2023/07/06 13:06:56;;;;;;;3.53;2.70;;;;;28.50;94343.00;;;;7384262;19;20136;-80
2023/07/06 13:09:32;;;;;;;8.85;2.92;;;;;25.50;94331.00;;;;7387391;19;20153;-81